createdAt,value
2023-03-02T00:00:45.358Z,23.25
2023-03-02T00:01:52.681Z,23.70
2023-03-02T00:02:54.569Z,34.72
2023-03-02T00:03:59.476Z,43.97
2023-03-02T00:05:01.858Z,77.62
2023-03-02T00:06:04.247Z,76.30
2023-03-02T00:07:10.737Z,59.30
2023-03-02T00:08:15.672Z,39.95
2023-03-02T00:09:17.856Z,31.48
2023-03-02T00:10:19.780Z,26.67
2023-03-02T00:11:22.294Z,21.73
2023-03-02T00:12:27.075Z,24.73
2023-03-02T00:13:30.700Z,23.65
2023-03-02T00:14:32.661Z,24.27
2023-03-02T00:15:34.541Z,21.15
2023-03-02T00:16:36.544Z,24.58
2023-03-02T00:17:38.722Z,24.95
2023-03-02T00:18:40.574Z,22.50
2023-03-02T00:19:42.503Z,23.50
2023-03-02T00:20:44.351Z,22.35
2023-03-02T00:21:46.289Z,25.73
2023-03-02T00:22:48.616Z,22.48
2023-03-02T00:23:51.992Z,22.92
2023-03-02T00:24:53.962Z,27.33
2023-03-02T00:25:55.840Z,22.25
2023-03-02T00:26:57.800Z,26.42
2023-03-02T00:27:59.982Z,21.67
2023-03-02T00:29:02.566Z,23.58
2023-03-02T00:30:05.249Z,22.65
2023-03-02T00:31:07.380Z,23.62
2023-03-02T00:32:09.450Z,25.95
2023-03-02T00:33:11.815Z,22.05
2023-03-02T00:34:13.683Z,24.48
2023-03-02T00:35:16.170Z,24.70
2023-03-02T00:36:20.609Z,27.40
2023-03-02T00:37:22.548Z,23.92
2023-03-02T00:38:24.820Z,23.85
2023-03-02T00:39:26.689Z,22.10
2023-03-02T00:40:28.617Z,24.25
2023-03-02T00:41:30.739Z,24.75
2023-03-02T00:42:33.706Z,27.80
2023-03-02T00:43:35.866Z,19.70
2023-03-02T00:44:37.710Z,25.23
2023-03-02T00:45:39.626Z,23.95
2023-03-02T00:46:41.499Z,22.33
2023-03-02T00:47:43.364Z,22.40
2023-03-02T00:48:46.253Z,22.42
2023-03-02T00:49:49.539Z,21.02
2023-03-02T00:50:51.462Z,27.35
2023-03-02T00:51:53.451Z,22.27
2023-03-02T00:52:55.504Z,22.23
2023-03-02T00:53:57.699Z,20.55
2023-03-02T00:54:59.666Z,21.10
2023-03-02T00:56:03.145Z,25.62
2023-03-02T00:57:06.378Z,23.20
2023-03-02T00:58:08.330Z,23.08
2023-03-02T00:59:28.565Z,23.42
2023-03-02T01:00:32.700Z,24.92
2023-03-02T01:01:35.022Z,22.52
2023-03-02T01:02:43.919Z,23.25
2023-03-02T01:03:46.920Z,19.73
2023-03-02T01:04:49.644Z,22.80
2023-03-02T01:05:55.390Z,24.63
2023-03-02T01:06:58.789Z,22.27
2023-03-02T01:08:00.620Z,23.25
2023-03-02T01:09:02.629Z,24.05
2023-03-02T01:10:05.262Z,19.20
2023-03-02T01:11:16.725Z,19.23
2023-03-02T01:12:18.940Z,23.17
2023-03-02T01:13:21.651Z,19.58
2023-03-02T01:14:24.512Z,22.65
2023-03-02T01:15:26.661Z,20.92
2023-03-02T01:16:28.491Z,20.33
2023-03-02T01:17:30.357Z,22.08
2023-03-02T01:18:33.033Z,21.83
2023-03-02T01:19:35.260Z,21.30
2023-03-02T01:20:37.528Z,23.73
2023-03-02T01:21:39.873Z,24.45
2023-03-02T01:22:43.410Z,21.20
2023-03-02T01:23:45.327Z,19.60
2023-03-02T01:24:47.370Z,20.25
2023-03-02T01:25:49.770Z,21.85
2023-03-02T01:26:51.681Z,22.00
2023-03-02T01:27:53.876Z,21.40
2023-03-02T01:28:55.863Z,21.35
2023-03-02T01:29:57.898Z,20.62
2023-03-02T01:31:02.750Z,23.83
2023-03-02T01:32:05.372Z,20.08
2023-03-02T01:33:07.326Z,22.08
2023-03-02T01:34:09.292Z,22.02
2023-03-02T01:35:11.260Z,20.12
2023-03-02T01:36:13.513Z,24.98
2023-03-02T01:37:15.420Z,19.20
2023-03-02T01:38:17.385Z,22.13
2023-03-02T01:39:22.419Z,19.60
2023-03-02T01:40:25.745Z,23.05
2023-03-02T01:41:28.336Z,19.05
2023-03-02T01:42:38.507Z,24.60
2023-03-02T01:43:40.406Z,20.67
2023-03-02T01:44:50.149Z,21.45
2023-03-02T01:45:59.252Z,22.17
2023-03-02T01:47:13.858Z,20.30
2023-03-02T01:48:23.742Z,20.70
2023-03-02T01:49:26.307Z,19.70
2023-03-02T01:50:29.139Z,20.35
2023-03-02T01:51:35.646Z,22.60
2023-03-02T01:52:38.640Z,22.10
2023-03-02T01:53:46.585Z,19.87
2023-03-02T01:54:50.327Z,19.33
2023-03-02T01:55:52.819Z,24.58
2023-03-02T01:57:02.391Z,22.77
2023-03-02T01:58:06.124Z,19.75
2023-03-02T01:59:16.706Z,21.12
2023-03-02T02:00:24.763Z,21.98
2023-03-02T02:01:27.147Z,19.35
2023-03-02T02:02:29.338Z,24.73
2023-03-02T02:03:31.789Z,20.83
2023-03-02T02:04:37.703Z,20.60
2023-03-02T02:05:42.970Z,19.92
2023-03-02T02:06:50.421Z,22.08
2023-03-02T02:07:52.420Z,20.52
2023-03-02T02:08:57.439Z,20.25
2023-03-02T02:10:00.698Z,19.98
2023-03-02T02:11:02.610Z,18.70
2023-03-02T02:12:05.917Z,24.27
2023-03-02T02:13:11.758Z,19.65
2023-03-02T02:14:13.721Z,21.77
2023-03-02T02:15:15.732Z,20.80
2023-03-02T02:16:18.274Z,22.65
2023-03-02T02:17:20.932Z,19.65
2023-03-02T02:18:23.253Z,22.77
2023-03-02T02:20:00.566Z,21.40
2023-03-02T02:21:02.431Z,21.05
2023-03-02T02:22:04.473Z,23.42
2023-03-02T02:23:25.840Z,30.40
2023-03-02T02:24:46.046Z,20.98
2023-03-02T02:25:53.495Z,23.35
2023-03-02T02:26:57.760Z,18.70
2023-03-02T02:27:59.781Z,17.50
2023-03-02T02:29:12.384Z,25.10
2023-03-02T02:30:16.312Z,21.45
2023-03-02T02:31:38.088Z,22.10
2023-03-02T02:32:41.689Z,22.25
2023-03-02T02:33:49.452Z,24.40
2023-03-02T02:34:59.422Z,23.27
2023-03-02T02:36:10.199Z,22.25
2023-03-02T02:37:16.936Z,23.80
2023-03-02T02:38:21.367Z,25.08
2023-03-02T02:39:31.634Z,26.65
2023-03-02T02:40:48.396Z,21.92
2023-03-02T02:41:55.114Z,27.17
2023-03-02T02:42:57.185Z,22.90
2023-03-02T02:43:59.228Z,23.65
2023-03-02T02:45:05.748Z,23.25
2023-03-02T02:46:10.556Z,26.92
2023-03-02T02:47:20.648Z,22.40
2023-03-02T02:48:25.325Z,23.42
2023-03-02T02:49:40.122Z,23.00
2023-03-02T02:50:43.149Z,19.90
2023-03-02T02:51:45.386Z,23.05
2023-03-02T02:52:55.545Z,22.13
2023-03-02T02:53:59.146Z,22.40
2023-03-02T02:55:02.291Z,23.52
2023-03-02T02:56:07.171Z,23.40
2023-03-02T02:57:12.320Z,28.62
2023-03-02T02:58:20.166Z,22.98
2023-03-02T02:59:29.776Z,26.75
2023-03-02T03:00:32.106Z,26.23
2023-03-02T03:01:34.857Z,24.98
2023-03-02T03:02:44.192Z,24.17
2023-03-02T03:03:52.754Z,21.85
2023-03-02T03:05:04.791Z,21.33
2023-03-02T03:06:13.629Z,25.98
2023-03-02T03:07:24.692Z,26.80
2023-03-02T03:08:53.077Z,29.52
2023-03-02T03:10:16.197Z,25.20
2023-03-02T03:11:26.457Z,22.73
2023-03-02T03:12:31.810Z,23.38
2023-03-02T03:13:34.187Z,21.12
2023-03-02T03:14:40.374Z,20.42
2023-03-02T03:15:42.988Z,21.75
2023-03-02T03:16:46.551Z,23.25
2023-03-02T03:17:55.125Z,25.73
2023-03-02T03:19:01.693Z,27.77
2023-03-02T03:20:09.101Z,18.23
2023-03-02T03:21:11.476Z,22.20
2023-03-02T03:22:15.959Z,20.70
2023-03-02T03:23:18.279Z,24.37
2023-03-02T03:24:20.759Z,22.13
2023-03-02T03:25:26.791Z,20.25
2023-03-02T03:26:29.820Z,21.40
2023-03-02T03:27:32.225Z,19.67
2023-03-02T03:28:36.005Z,16.05
2023-03-02T03:29:41.441Z,19.83
2023-03-02T03:30:44.400Z,22.70
2023-03-02T03:31:47.201Z,19.90
2023-03-02T03:32:49.376Z,17.67
2023-03-02T03:33:52.599Z,21.40
2023-03-02T03:34:54.733Z,20.90
2023-03-02T03:35:56.872Z,18.87
2023-03-02T03:37:02.199Z,19.40
2023-03-02T03:38:06.661Z,17.42
2023-03-02T03:39:08.615Z,18.52
2023-03-02T03:40:10.890Z,24.37
2023-03-02T03:41:13.174Z,17.23
2023-03-02T03:42:15.566Z,25.48
2023-03-02T03:43:17.769Z,20.88
2023-03-02T03:44:21.370Z,21.55
2023-03-02T03:45:23.313Z,21.37
2023-03-02T03:46:25.458Z,19.83
2023-03-02T03:47:27.646Z,17.45
2023-03-02T03:48:29.685Z,13.52
2023-03-02T03:49:31.590Z,15.82
2023-03-02T03:50:33.548Z,18.77
2023-03-02T03:51:35.755Z,19.27
2023-03-02T03:52:38.397Z,21.12
2023-03-02T03:53:40.854Z,18.42
2023-03-02T03:54:42.715Z,14.55
2023-03-02T03:55:44.660Z,16.20
2023-03-02T03:56:49.136Z,15.40
2023-03-02T03:57:51.501Z,14.82
2023-03-02T03:59:06.224Z,13.50
2023-03-02T04:00:14.836Z,14.82
2023-03-02T04:02:22.893Z,15.63
2023-03-02T04:03:25.528Z,18.83
2023-03-02T04:04:33.684Z,15.85
2023-03-02T04:05:36.980Z,16.95
2023-03-02T04:06:40.063Z,18.30
2023-03-02T04:07:42.030Z,13.20
2023-03-02T04:08:44.048Z,17.98
2023-03-02T04:09:45.993Z,17.42
2023-03-02T04:10:48.085Z,16.42
2023-03-02T04:11:53.305Z,19.60
2023-03-02T04:12:55.854Z,17.80
2023-03-02T04:13:58.302Z,17.80
2023-03-02T04:15:00.758Z,13.55
2023-03-02T04:16:02.953Z,14.65
2023-03-02T04:17:07.109Z,14.75
2023-03-02T04:18:10.457Z,16.48
2023-03-02T04:19:13.669Z,15.10
2023-03-02T04:20:16.586Z,14.93
2023-03-02T04:21:19.568Z,14.02
2023-03-02T04:22:22.108Z,19.35
2023-03-02T04:23:23.989Z,14.73
2023-03-02T04:24:25.977Z,20.67
2023-03-02T04:25:30.316Z,16.45
2023-03-02T04:26:33.869Z,17.17
2023-03-02T04:27:36.450Z,16.25
2023-03-02T04:28:38.786Z,18.62
2023-03-02T04:29:41.410Z,16.85
2023-03-02T04:30:43.492Z,18.62
2023-03-02T04:31:45.909Z,15.60
2023-03-02T04:32:48.183Z,15.75
2023-03-02T04:33:50.243Z,15.27
2023-03-02T04:34:52.204Z,17.02
2023-03-02T04:35:54.682Z,19.37
2023-03-02T04:36:57.246Z,18.42
2023-03-02T04:37:59.501Z,18.98
2023-03-02T04:39:01.374Z,19.48
2023-03-02T04:40:04.352Z,17.33
2023-03-02T04:41:06.329Z,17.58
2023-03-02T04:42:08.235Z,17.42
2023-03-02T04:43:10.375Z,18.08
2023-03-02T04:44:13.331Z,15.02
2023-03-02T04:45:15.291Z,16.50
2023-03-02T04:46:21.764Z,18.30
2023-03-02T04:47:23.879Z,20.55
2023-03-02T04:48:26.285Z,16.58
2023-03-02T04:49:28.185Z,17.33
2023-03-02T04:50:30.680Z,20.23
2023-03-02T04:51:36.892Z,23.00
2023-03-02T04:52:39.231Z,21.73
2023-03-02T04:53:41.506Z,20.17
2023-03-02T04:54:43.419Z,23.00
2023-03-02T04:55:45.480Z,18.92
2023-03-02T04:56:48.625Z,18.25
2023-03-02T04:57:50.612Z,20.60
2023-03-02T04:58:52.804Z,20.27
2023-03-02T04:59:54.644Z,19.58
2023-03-02T05:01:03.615Z,24.30
2023-03-02T05:02:05.672Z,21.98
2023-03-02T05:03:07.741Z,22.37
2023-03-02T05:04:10.208Z,21.70
2023-03-02T05:05:19.047Z,27.35
2023-03-02T05:06:25.231Z,34.42
2023-03-02T05:07:27.139Z,24.63
2023-03-02T05:08:29.713Z,26.55
2023-03-02T05:09:31.939Z,27.55
2023-03-02T05:10:33.858Z,24.25
2023-03-02T05:11:35.756Z,27.92
2023-03-02T05:12:54.724Z,22.98
2023-03-02T05:13:59.565Z,23.12
2023-03-02T05:15:01.697Z,22.67
2023-03-02T05:16:03.856Z,22.73
2023-03-02T05:17:05.791Z,22.90
2023-03-02T05:18:10.858Z,23.40
2023-03-02T05:19:13.508Z,25.92
2023-03-02T05:20:15.972Z,21.00
2023-03-02T05:21:18.790Z,23.42
2023-03-02T05:22:20.635Z,24.05
2023-03-02T05:23:27.165Z,23.60
2023-03-02T05:24:29.076Z,20.33
2023-03-02T05:25:33.555Z,19.30
2023-03-02T05:26:35.759Z,25.70
2023-03-02T05:27:37.819Z,21.25
2023-03-02T05:28:41.487Z,22.87
2023-03-02T05:29:43.410Z,22.20
2023-03-02T05:30:46.249Z,24.08
2023-03-02T05:31:48.894Z,21.35
2023-03-02T05:32:51.898Z,24.70
2023-03-02T05:33:53.778Z,24.10
2023-03-02T05:34:55.762Z,24.23
2023-03-02T05:35:58.550Z,19.80
2023-03-02T05:37:00.510Z,22.55
2023-03-02T05:38:02.408Z,25.58
2023-03-02T05:39:05.456Z,24.35
2023-03-02T05:40:09.656Z,22.75
2023-03-02T05:41:12.108Z,24.42
2023-03-02T05:42:14.195Z,23.25
2023-03-02T05:43:18.712Z,25.98
2023-03-02T05:44:20.607Z,30.70
2023-03-02T05:45:35.167Z,27.98
2023-03-02T05:46:38.239Z,38.03
2023-03-02T05:47:40.174Z,45.12
2023-03-02T05:48:42.515Z,73.12
2023-03-02T05:49:44.683Z,65.70
2023-03-02T05:50:46.628Z,87.32
2023-03-02T05:51:48.836Z,86.72
2023-03-02T05:52:50.926Z,79.35
2023-03-02T05:53:52.967Z,80.90
2023-03-02T05:54:54.951Z,66.28
2023-03-02T05:55:57.006Z,72.80
2023-03-02T05:56:59.197Z,61.17
2023-03-02T05:58:01.053Z,50.17
2023-03-02T05:59:02.988Z,46.63
2023-03-02T06:00:05.980Z,43.47
2023-03-02T06:01:15.532Z,41.95
2023-03-02T06:02:18.304Z,47.47
2023-03-02T06:03:20.318Z,37.30
2023-03-02T06:04:22.252Z,28.62
2023-03-02T06:05:24.681Z,30.17
2023-03-02T06:06:26.577Z,25.60
2023-03-02T06:07:29.946Z,24.80
2023-03-02T06:08:31.895Z,28.67
2023-03-02T06:09:33.966Z,37.10
2023-03-02T06:10:36.332Z,57.97
2023-03-02T06:11:38.179Z,57.78
2023-03-02T06:12:40.613Z,57.38
2023-03-02T06:13:42.535Z,51.75
2023-03-02T06:14:44.537Z,47.65
2023-03-02T06:15:46.841Z,41.97
2023-03-02T06:16:49.020Z,36.17
2023-03-02T06:17:51.264Z,40.22
2023-03-02T06:18:53.124Z,44.35
2023-03-02T06:19:55.040Z,39.92
2023-03-02T06:20:57.039Z,43.00
2023-03-02T06:21:58.947Z,37.70
2023-03-02T06:23:01.465Z,36.67
2023-03-02T06:24:03.396Z,35.25
2023-03-02T06:25:05.622Z,38.05
2023-03-02T06:26:12.030Z,41.00
2023-03-02T06:27:14.860Z,41.92
2023-03-02T06:28:19.900Z,39.50
2023-03-02T06:29:22.650Z,41.67
2023-03-02T06:30:25.966Z,42.60
2023-03-02T06:31:28.035Z,48.30
2023-03-02T06:32:34.174Z,48.78
2023-03-02T06:33:36.430Z,38.40
2023-03-02T06:34:38.287Z,36.75
2023-03-02T06:35:40.314Z,48.50
2023-03-02T06:36:42.277Z,46.75
2023-03-02T06:37:44.736Z,45.85
2023-03-02T06:38:47.045Z,45.42
2023-03-02T06:39:48.919Z,54.63
2023-03-02T06:40:50.777Z,39.70
2023-03-02T06:41:52.651Z,45.45
2023-03-02T06:42:54.586Z,39.63
2023-03-02T06:43:57.167Z,37.60
2023-03-02T06:44:59.172Z,51.00
2023-03-02T06:46:02.018Z,42.62
2023-03-02T06:47:03.945Z,31.62
2023-03-02T06:48:07.588Z,27.95
2023-03-02T06:49:12.487Z,25.70
2023-03-02T06:50:15.907Z,27.52
2023-03-02T06:51:18.132Z,25.27
2023-03-02T06:52:20.092Z,23.38
2023-03-02T06:53:23.406Z,26.17
2023-03-02T06:54:25.600Z,22.65
2023-03-02T06:55:27.629Z,20.35
2023-03-02T06:56:29.514Z,24.33
2023-03-02T06:57:34.236Z,22.62
2023-03-02T06:58:37.268Z,20.48
2023-03-02T06:59:39.500Z,25.33
2023-03-02T07:00:41.623Z,26.08
2023-03-02T07:01:43.778Z,21.42
2023-03-02T07:02:45.688Z,15.52
2023-03-02T07:03:47.878Z,15.25
2023-03-02T07:04:50.151Z,20.67
2023-03-02T07:05:52.290Z,23.75
2023-03-02T07:06:54.571Z,20.02
2023-03-02T07:07:56.418Z,15.25
2023-03-02T07:08:58.259Z,21.02
2023-03-02T07:10:00.386Z,16.37
2023-03-02T07:11:06.590Z,14.68
2023-03-02T07:12:08.478Z,20.25
2023-03-02T07:13:10.345Z,13.45
2023-03-02T07:14:12.212Z,14.80
2023-03-02T07:15:15.773Z,22.25
2023-03-02T07:16:17.744Z,13.43
2023-03-02T07:17:19.765Z,15.32
2023-03-02T07:18:21.773Z,14.15
2023-03-02T07:19:23.694Z,12.13
2023-03-02T07:20:25.890Z,11.95
2023-03-02T07:21:27.848Z,12.40
2023-03-02T07:22:29.724Z,10.32
2023-03-02T07:23:31.839Z,10.85
2023-03-02T07:24:33.913Z,11.90
2023-03-02T07:25:37.060Z,11.20
2023-03-02T07:26:39.108Z,10.95
2023-03-02T07:27:41.253Z,11.15
2023-03-02T07:28:44.506Z,9.70
2023-03-02T07:29:46.557Z,10.02
2023-03-02T07:30:48.914Z,13.25
2023-03-02T07:31:56.998Z,9.75
2023-03-02T07:32:58.998Z,9.68
2023-03-02T07:34:00.933Z,7.47
2023-03-02T07:35:03.211Z,9.10
2023-03-02T07:36:07.184Z,6.80
2023-03-02T07:37:09.148Z,16.55
2023-03-02T07:38:11.020Z,9.55
2023-03-02T07:39:12.881Z,7.43
2023-03-02T07:40:15.766Z,9.98
2023-03-02T07:41:18.167Z,8.00
2023-03-02T07:42:20.126Z,10.00
2023-03-02T07:43:25.471Z,10.02
2023-03-02T07:44:28.131Z,10.27
2023-03-02T07:45:30.167Z,10.30
2023-03-02T07:46:32.378Z,10.40
2023-03-02T07:47:34.376Z,9.20
2023-03-02T07:48:36.673Z,11.98
2023-03-02T07:49:38.919Z,8.15
2023-03-02T07:50:40.866Z,10.35
2023-03-02T07:51:43.069Z,10.60
2023-03-02T07:52:44.965Z,12.00
2023-03-02T07:53:46.921Z,10.27
2023-03-02T07:54:49.015Z,9.95
2023-03-02T07:55:50.875Z,9.27
2023-03-02T07:56:53.107Z,8.27
2023-03-02T07:57:54.967Z,8.30
2023-03-02T07:58:56.940Z,10.85
2023-03-02T07:59:58.812Z,9.30
2023-03-02T08:01:00.779Z,9.70
2023-03-02T08:02:03.149Z,10.15
2023-03-02T08:03:05.140Z,7.43
2023-03-02T08:04:07.074Z,6.70
2023-03-02T08:05:13.091Z,8.60
2023-03-02T08:06:14.992Z,7.75
2023-03-02T08:07:17.190Z,7.87
2023-03-02T08:08:19.086Z,9.65
2023-03-02T08:09:20.930Z,8.85
2023-03-02T08:10:23.162Z,8.80
2023-03-02T08:11:25.029Z,22.52
2023-03-02T08:12:28.188Z,10.88
2023-03-02T08:13:30.064Z,11.55
2023-03-02T08:14:32.358Z,10.25
2023-03-02T08:15:34.346Z,10.55
2023-03-02T08:16:36.330Z,10.88
2023-03-02T08:17:38.579Z,10.10
2023-03-02T08:18:41.740Z,11.75
2023-03-02T08:19:43.611Z,8.38
2023-03-02T08:20:45.492Z,9.90
2023-03-02T08:21:47.313Z,9.23
2023-03-02T08:22:50.182Z,10.60
2023-03-02T08:23:52.907Z,11.73
2023-03-02T08:24:55.018Z,10.95
2023-03-02T08:25:57.024Z,9.35
2023-03-02T08:27:03.081Z,12.55
2023-03-02T08:28:05.287Z,8.23
2023-03-02T08:29:07.316Z,8.73
2023-03-02T08:30:10.722Z,10.60
2023-03-02T08:31:13.828Z,9.15
2023-03-02T08:32:15.850Z,10.10
2023-03-02T08:33:18.133Z,7.85
2023-03-02T08:34:20.044Z,9.30
2023-03-02T08:35:22.288Z,7.10
2023-03-02T08:36:24.222Z,7.60
2023-03-02T08:37:26.220Z,8.73
2023-03-02T08:38:29.394Z,13.05
2023-03-02T08:39:32.195Z,10.50
2023-03-02T08:40:34.908Z,9.32
2023-03-02T08:41:36.841Z,9.00
2023-03-02T08:42:38.726Z,11.35
2023-03-02T08:43:41.092Z,12.45
2023-03-02T08:44:43.164Z,9.48
2023-03-02T08:45:45.608Z,7.43
2023-03-02T08:46:50.637Z,9.60
2023-03-02T08:47:55.680Z,9.45
2023-03-02T08:48:57.882Z,8.73
2023-03-02T08:49:59.826Z,8.45
2023-03-02T08:51:10.198Z,8.13
2023-03-02T08:52:15.281Z,10.73
2023-03-02T08:53:17.353Z,8.18
2023-03-02T08:54:20.771Z,10.60
2023-03-02T08:55:22.748Z,8.68
2023-03-02T08:56:30.280Z,12.05
2023-03-02T08:57:32.153Z,10.13
2023-03-02T08:58:34.113Z,10.32
2023-03-02T08:59:36.240Z,12.23
2023-03-02T09:00:38.578Z,11.23
2023-03-02T09:01:41.539Z,8.18
2023-03-02T09:02:43.585Z,9.10
2023-03-02T09:03:45.954Z,8.50
2023-03-02T09:04:48.304Z,9.55
2023-03-02T09:05:51.102Z,10.60
2023-03-02T09:06:53.113Z,8.65
2023-03-02T09:07:55.100Z,12.63
2023-03-02T09:08:57.853Z,11.02
2023-03-02T09:10:00.176Z,10.82
2023-03-02T09:11:02.176Z,11.65
2023-03-02T09:12:04.243Z,11.82
2023-03-02T09:13:08.356Z,9.52
2023-03-02T09:14:11.102Z,11.85
2023-03-02T09:15:13.363Z,10.18
2023-03-02T09:16:16.056Z,13.35
2023-03-02T09:17:18.090Z,14.82
2023-03-02T09:18:20.089Z,11.65
2023-03-02T09:19:22.127Z,10.55
2023-03-02T09:20:24.707Z,9.85
2023-03-02T09:21:26.724Z,12.55
2023-03-02T09:22:28.894Z,8.77
2023-03-02T09:23:31.289Z,11.68
2023-03-02T09:24:33.238Z,12.40
2023-03-02T09:25:35.529Z,12.60
2023-03-02T09:26:39.120Z,14.45
2023-03-02T09:27:41.813Z,10.68
2023-03-02T09:28:43.925Z,12.45
2023-03-02T09:29:45.833Z,11.00
2023-03-02T09:30:50.130Z,14.23
2023-03-02T09:31:52.219Z,12.00
2023-03-02T09:32:54.478Z,11.63
2023-03-02T09:33:57.174Z,11.35
2023-03-02T09:34:59.011Z,14.40
2023-03-02T09:36:06.067Z,14.80
2023-03-02T09:37:07.914Z,14.10
2023-03-02T09:38:12.947Z,14.57
2023-03-02T09:39:14.962Z,12.57
2023-03-02T09:40:20.504Z,11.82
2023-03-02T09:41:22.641Z,9.82
2023-03-02T09:42:44.118Z,12.10
2023-03-02T09:43:52.211Z,11.93
2023-03-02T09:45:02.888Z,12.10
2023-03-02T09:46:10.780Z,12.52
2023-03-02T09:47:35.439Z,14.35
2023-03-02T09:48:45.652Z,13.23
2023-03-02T09:50:05.597Z,13.90
2023-03-02T09:51:16.729Z,12.57
2023-03-02T09:52:44.947Z,13.65
2023-03-02T09:54:03.345Z,10.82
2023-03-02T09:55:18.419Z,14.43
2023-03-02T09:56:21.783Z,13.05
2023-03-02T09:57:35.089Z,13.88
2023-03-02T09:58:39.623Z,13.82
2023-03-02T09:59:51.815Z,12.57
2023-03-02T10:00:53.829Z,14.50
2023-03-02T10:02:19.028Z,16.73
2023-03-02T10:03:23.759Z,13.20
2023-03-02T10:04:29.236Z,13.82
2023-03-02T10:05:37.644Z,13.70
2023-03-02T10:06:39.587Z,12.40
2023-03-02T10:07:42.153Z,15.23
2023-03-02T10:08:44.072Z,15.38
2023-03-02T10:09:46.605Z,12.98
2023-03-02T10:11:00.280Z,15.05
2023-03-02T10:12:52.004Z,12.93
2023-03-02T10:14:06.362Z,16.00
2023-03-02T10:15:22.365Z,14.40
2023-03-02T10:16:41.506Z,16.48
2023-03-02T10:17:52.973Z,15.20
2023-03-02T10:19:13.130Z,20.12
2023-03-02T10:20:22.596Z,15.57
2023-03-02T10:21:34.956Z,14.18
2023-03-02T10:22:48.362Z,13.88
2023-03-02T10:24:14.840Z,16.62
2023-03-02T10:25:48.655Z,14.20
2023-03-02T10:26:55.673Z,13.80
2023-03-02T10:28:22.703Z,16.48
2023-03-02T10:29:30.723Z,14.15
2023-03-02T10:30:37.783Z,13.07
2023-03-02T10:31:41.605Z,15.00
2023-03-02T10:32:47.839Z,16.35
2023-03-02T10:33:49.726Z,14.77
2023-03-02T10:34:53.607Z,14.38
2023-03-02T10:35:55.915Z,14.15
2023-03-02T10:36:58.481Z,17.58
2023-03-02T10:38:11.923Z,15.00
2023-03-02T10:39:16.599Z,13.88
2023-03-02T10:40:43.702Z,11.85
2023-03-02T10:42:03.662Z,12.50
2023-03-02T10:43:11.404Z,14.73
2023-03-02T10:44:22.314Z,13.38
2023-03-02T10:45:32.147Z,12.63
2023-03-02T10:46:46.320Z,14.98
2023-03-02T10:47:48.598Z,12.00
2023-03-02T10:48:52.208Z,14.80
2023-03-02T10:49:55.784Z,13.57
2023-03-02T10:50:59.091Z,10.80
2023-03-02T10:52:06.983Z,13.13
2023-03-02T10:53:17.725Z,13.52
2023-03-02T10:54:19.589Z,12.93
2023-03-02T10:55:21.435Z,13.48
2023-03-02T10:56:23.369Z,12.57
2023-03-02T10:57:25.188Z,14.85
2023-03-02T10:58:33.338Z,12.90
2023-03-02T10:59:43.499Z,13.57
2023-03-02T11:00:59.433Z,14.93
2023-03-02T11:02:03.033Z,11.52
2023-03-02T11:03:20.202Z,13.25
2023-03-02T11:04:22.485Z,12.15
2023-03-02T11:05:36.877Z,13.70
2023-03-02T11:06:38.778Z,13.50
2023-03-02T11:07:40.689Z,12.10
2023-03-02T11:08:42.541Z,11.30
2023-03-02T11:10:02.591Z,10.65
2023-03-02T11:11:04.952Z,12.23
2023-03-02T11:12:14.517Z,10.98
2023-03-02T11:13:20.587Z,11.32
2023-03-02T11:14:25.498Z,11.68
2023-03-02T11:15:40.065Z,9.85
2023-03-02T11:16:42.231Z,11.15
2023-03-02T11:17:46.822Z,11.25
2023-03-02T11:19:16.221Z,10.25
2023-03-02T11:20:25.008Z,10.88
2023-03-02T11:21:40.598Z,10.25
2023-03-02T11:22:54.782Z,8.90
2023-03-02T11:24:15.200Z,11.48
2023-03-02T11:25:30.843Z,11.20
2023-03-02T11:26:41.698Z,10.38
2023-03-02T11:27:45.424Z,9.30
2023-03-02T11:29:03.364Z,8.95
2023-03-02T11:30:19.368Z,9.50
2023-03-02T11:31:40.170Z,10.18
2023-03-02T11:33:12.883Z,10.05
2023-03-02T11:34:31.214Z,12.95
2023-03-02T11:35:58.812Z,10.80
2023-03-02T11:37:17.176Z,11.75
2023-03-02T11:38:54.877Z,12.65
2023-03-02T11:40:09.044Z,10.07
2023-03-02T11:41:24.646Z,11.75
2023-03-02T11:42:36.274Z,11.35
2023-03-02T11:43:38.647Z,13.38
2023-03-02T11:44:47.376Z,10.45
2023-03-02T11:46:13.835Z,12.18
2023-03-02T11:47:22.680Z,13.32
2023-03-02T11:48:37.641Z,16.08
2023-03-02T11:49:45.707Z,15.23
2023-03-02T11:50:59.526Z,13.48
2023-03-02T11:52:02.233Z,12.43
2023-03-02T11:53:08.076Z,11.27
2023-03-02T11:54:41.103Z,10.43
2023-03-02T11:55:48.675Z,12.95
2023-03-02T11:56:50.751Z,11.55
2023-03-02T11:57:56.310Z,12.48
2023-03-02T11:59:03.026Z,10.68
2023-03-02T12:00:16.009Z,10.98
2023-03-02T12:01:23.534Z,12.68
2023-03-02T12:02:27.525Z,15.10
2023-03-02T12:03:32.421Z,16.30
2023-03-02T12:04:37.687Z,11.95
2023-03-02T12:05:40.068Z,12.68
2023-03-02T12:06:45.280Z,11.30
2023-03-02T12:07:57.444Z,11.85
2023-03-02T12:09:31.341Z,12.25
2023-03-02T12:10:40.018Z,11.93
2023-03-02T12:11:46.096Z,12.00
2023-03-02T12:13:03.838Z,11.18
2023-03-02T12:14:45.278Z,14.52
2023-03-02T12:15:56.279Z,13.23
2023-03-02T12:17:18.142Z,14.75
2023-03-02T12:18:23.066Z,13.85
2023-03-02T12:19:38.864Z,12.70
2023-03-02T12:20:43.002Z,12.00
2023-03-02T12:22:02.284Z,11.98
2023-03-02T12:23:10.594Z,13.35
2023-03-02T12:24:25.547Z,11.50
2023-03-02T12:25:37.305Z,11.20
2023-03-02T12:26:39.230Z,11.20
2023-03-02T12:27:42.098Z,12.05
2023-03-02T12:28:44.274Z,11.25
2023-03-02T12:29:49.904Z,10.30
2023-03-02T12:31:08.400Z,12.93
2023-03-02T12:32:33.037Z,12.20
2023-03-02T12:33:47.859Z,16.42
2023-03-02T12:35:08.286Z,12.13
2023-03-02T12:36:15.317Z,12.30
2023-03-02T12:37:21.753Z,13.25
2023-03-02T12:38:33.958Z,13.23
2023-03-02T12:40:18.483Z,12.65
2023-03-02T12:41:42.008Z,15.70
2023-03-02T12:43:01.300Z,11.82
2023-03-02T12:44:31.696Z,11.55
2023-03-02T12:46:00.475Z,13.07
2023-03-02T12:47:04.165Z,10.48
2023-03-02T12:48:38.029Z,10.23
2023-03-02T12:50:02.099Z,10.25
2023-03-02T12:51:05.771Z,12.27
2023-03-02T12:52:26.644Z,12.60
2023-03-02T12:53:29.064Z,10.13
2023-03-02T12:54:34.395Z,13.40
2023-03-02T12:55:38.765Z,10.45
2023-03-02T12:56:40.961Z,14.85
2023-03-02T12:57:55.066Z,12.57
2023-03-02T12:58:56.989Z,11.82
2023-03-02T13:00:01.510Z,11.20
2023-03-02T13:01:04.085Z,8.95
2023-03-02T13:02:35.172Z,12.88
2023-03-02T13:03:47.770Z,10.13
2023-03-02T13:04:57.998Z,10.30
2023-03-02T13:06:11.301Z,12.37
2023-03-02T13:07:22.772Z,12.13
2023-03-02T13:08:28.828Z,11.23
2023-03-02T13:09:31.354Z,11.85
2023-03-02T13:10:52.168Z,10.02
2023-03-02T13:11:55.202Z,11.07
2023-03-02T13:12:59.338Z,10.18
2023-03-02T13:14:04.076Z,11.75
2023-03-02T13:15:15.345Z,11.20
2023-03-02T13:16:22.279Z,8.57
2023-03-02T13:17:31.246Z,12.48
2023-03-02T13:18:36.504Z,8.38
2023-03-02T13:19:38.438Z,12.13
2023-03-02T13:20:41.107Z,10.13
2023-03-02T13:21:43.196Z,8.73
2023-03-02T13:22:45.228Z,14.60
2023-03-02T13:23:50.250Z,8.25
2023-03-02T13:25:02.260Z,10.30
2023-03-02T13:26:05.868Z,12.00
2023-03-02T13:27:15.467Z,12.10
2023-03-02T13:28:30.459Z,9.85
2023-03-02T13:29:32.516Z,9.80
2023-03-02T13:30:47.714Z,12.35
2023-03-02T13:31:50.835Z,10.00
2023-03-02T13:33:00.868Z,9.23
2023-03-02T13:34:02.837Z,10.18
2023-03-02T13:35:17.948Z,10.68
2023-03-02T13:36:26.981Z,13.88
2023-03-02T13:37:35.024Z,9.23
2023-03-02T13:38:37.978Z,9.45
2023-03-02T13:39:39.876Z,7.62
2023-03-02T13:40:48.389Z,9.52
2023-03-02T13:41:58.939Z,13.75
2023-03-02T13:43:01.270Z,9.93
2023-03-02T13:44:19.879Z,10.05
2023-03-02T13:45:24.812Z,10.32
2023-03-02T13:46:29.636Z,8.43
2023-03-02T13:47:31.574Z,11.93
2023-03-02T13:48:34.368Z,14.27
2023-03-02T13:49:37.798Z,9.20
2023-03-02T13:50:39.741Z,12.35
2023-03-02T13:51:45.390Z,9.45
2023-03-02T13:52:48.254Z,9.55
2023-03-02T13:54:00.316Z,13.90
2023-03-02T13:55:02.222Z,7.60
2023-03-02T13:56:04.327Z,10.90
2023-03-02T13:57:06.900Z,8.52
2023-03-02T13:58:16.667Z,8.00
2023-03-02T13:59:21.175Z,10.90
2023-03-02T14:00:36.390Z,10.52
2023-03-02T14:01:38.963Z,9.02
2023-03-02T14:02:45.113Z,9.48
2023-03-02T14:03:47.098Z,9.88
2023-03-02T14:04:49.197Z,9.55
2023-03-02T14:05:52.356Z,9.77
2023-03-02T14:06:55.124Z,7.87
2023-03-02T14:07:57.033Z,9.55
2023-03-02T14:08:59.150Z,11.32
2023-03-02T14:10:01.029Z,14.98